Time;durP1;ratioP1;P1;durP2;ratioP2;P2;SDS_P1;SDS_P2;PMS_P1;PMS_P2;Temp;Humidity;BMP_temperature;BMP_pressure;BME280_temperature;BME280_humidity;BME280_pressure;Samples;Min_cycle;Max_cycle;Signal;HPM_P1;HPM_P2
2021/09/16 00:02:03;;;;;;;18.55;14.35;;;17.80;99.90;;;;;;5065990;28;20387;-81
2021/09/16 00:04:28;;;;;;;16.73;12.98;;;17.80;99.90;;;;;;5067093;28;20698;-82
2021/09/16 00:06:54;;;;;;;18.73;13.60;;;17.80;99.90;;;;;;5048974;28;20193;-82
2021/09/16 00:09:20;;;;;;;17.50;13.75;;;17.70;99.90;;;;;;5066888;28;20535;-81
2021/09/16 00:11:45;;;;;;;19.45;14.05;;;17.70;99.90;;;;;;5047761;28;20264;-82
2021/09/16 00:14:11;;;;;;;18.30;13.68;;;17.70;99.90;;;;;;5048685;28;20267;-82
2021/09/16 00:16:37;;;;;;;18.38;12.95;;;17.60;99.90;;;;;;5067598;28;20185;-81
2021/09/16 00:19:02;;;;;;;18.30;13.25;;;17.60;99.90;;;;;;5067368;28;20177;-81
2021/09/16 00:21:28;;;;;;;16.70;12.50;;;17.60;99.90;;;;;;5065359;28;20280;-80
2021/09/16 00:23:53;;;;;;;15.20;12.82;;;17.50;99.90;;;;;;5067070;28;20236;-81
2021/09/16 00:26:19;;;;;;;16.23;13.10;;;17.40;99.90;;;;;;5048896;28;20182;-82
2021/09/16 00:28:45;;;;;;;15.30;12.32;;;17.40;99.90;;;;;;5048861;28;20651;-81
2021/09/16 00:31:10;;;;;;;15.65;11.55;;;17.50;99.90;;;;;;5046641;28;20243;-80
2021/09/16 00:33:36;;;;;;;15.68;12.38;;;17.40;99.90;;;;;;5066380;28;20202;-80
2021/09/16 00:36:02;;;;;;;16.60;12.43;;;17.40;99.90;;;;;;5065261;28;20715;-82
2021/09/16 00:38:28;;;;;;;17.23;13.20;;;17.40;99.90;;;;;;5047776;28;20251;-81
2021/09/16 00:40:53;;;;;;;16.15;12.32;;;17.30;99.90;;;;;;5048176;28;20878;-81
2021/09/16 00:43:19;;;;;;;15.27;11.05;;;17.40;99.90;;;;;;5047312;28;20209;-82
2021/09/16 00:45:44;;;;;;;15.48;10.98;;;17.30;99.90;;;;;;5046268;28;20195;-81
2021/09/16 00:48:10;;;;;;;11.52;9.50;;;17.30;99.90;;;;;;5048777;28;20669;-81
2021/09/16 00:50:37;;;;;;;11.45;9.90;;;17.30;99.90;;;;;;5049116;28;20178;-81
2021/09/16 00:53:03;;;;;;;12.25;9.10;;;17.30;99.90;;;;;;5048692;28;20690;-80
2021/09/16 00:55:30;;;;;;;14.30;9.52;;;17.20;99.90;;;;;;5067408;28;20182;-81
2021/09/16 00:58:03;;;;;;;13.07;9.48;;;17.20;99.90;;;;;;5047241;28;20560;-80
2021/09/16 01:00:29;;;;;;;10.77;8.38;;;17.20;99.90;;;;;;5047122;28;20182;-81
2021/09/16 01:02:54;;;;;;;9.93;8.00;;;17.20;99.90;;;;;;5046914;28;20209;-81
2021/09/16 01:05:20;;;;;;;9.60;7.90;;;17.20;99.90;;;;;;5065818;28;20197;-80
2021/09/16 01:07:46;;;;;;;10.52;7.65;;;17.20;99.90;;;;;;5065719;28;20192;-81
2021/09/16 01:10:12;;;;;;;9.20;7.43;;;17.20;99.90;;;;;;5065151;28;20200;-80
2021/09/16 01:12:40;;;;;;;9.90;6.97;;;17.10;99.90;;;;;;5046675;28;20228;-81
2021/09/16 01:15:09;;;;;;;9.38;7.10;;;17.20;99.90;;;;;;5065262;28;20784;-80
2021/09/16 01:17:35;;;;;;;9.13;7.07;;;17.20;99.90;;;;;;5065027;28;20243;-81
2021/09/16 01:20:00;;;;;;;9.50;7.10;;;17.20;99.90;;;;;;5046682;28;21038;-81
2021/09/16 01:22:32;;;;;;;7.32;6.07;;;17.10;99.90;;;;;;5065179;28;20233;-81
2021/09/16 01:24:57;;;;;;;8.45;6.70;;;17.20;99.90;;;;;;5047500;28;20276;-81
2021/09/16 01:27:23;;;;;;;10.18;6.25;;;17.10;99.90;;;;;;5065112;28;20186;-80
2021/09/16 01:29:48;;;;;;;7.50;6.30;;;17.10;99.90;;;;;;5064537;28;20185;-80
2021/09/16 01:32:14;;;;;;;7.55;5.60;;;17.10;99.90;;;;;;5064230;28;20292;-80
2021/09/16 01:34:40;;;;;;;9.75;6.43;;;17.10;99.90;;;;;;5065109;28;20715;-80
2021/09/16 01:37:07;;;;;;;7.03;5.85;;;17.00;99.90;;;;;;5068254;28;20877;-81
2021/09/16 01:39:34;;;;;;;9.40;6.80;;;17.00;99.90;;;;;;5068800;28;20276;-81
2021/09/16 01:42:00;;;;;;;6.93;5.43;;;17.00;99.90;;;;;;5050465;28;20642;-81
2021/09/16 01:44:25;;;;;;;6.30;5.20;;;17.10;99.90;;;;;;5050009;28;20295;-81
2021/09/16 01:46:51;;;;;;;7.57;5.30;;;17.00;99.90;;;;;;5068270;28;20686;-79
2021/09/16 01:49:17;;;;;;;5.55;5.00;;;17.00;99.90;;;;;;5068166;28;20277;-81
2021/09/16 01:51:42;;;;;;;6.00;5.20;;;17.00;99.90;;;;;;5049633;28;20193;-81
2021/09/16 01:54:08;;;;;;;5.70;4.85;;;17.00;99.90;;;;;;5068954;28;20209;-80
2021/09/16 01:56:34;;;;;;;6.03;5.10;;;17.00;99.90;;;;;;5069773;28;20605;-80
2021/09/16 01:58:59;;;;;;;6.70;5.25;;;17.00;99.90;;;;;;5069932;28;20181;-81
2021/09/16 02:01:25;;;;;;;6.47;4.80;;;16.90;99.90;;;;;;5050709;28;20181;-82
2021/09/16 02:03:53;;;;;;;6.68;4.97;;;16.90;99.90;;;;;;5051030;28;20189;-82
2021/09/16 02:06:20;;;;;;;5.88;4.30;;;16.90;99.90;;;;;;5051159;28;20181;-81
2021/09/16 02:08:46;;;;;;;5.25;4.10;;;16.90;99.90;;;;;;5069088;28;20178;-81
2021/09/16 02:11:11;;;;;;;6.25;4.75;;;16.90;99.90;;;;;;5050464;28;20227;-81
2021/09/16 02:13:37;;;;;;;7.15;4.60;;;16.90;99.90;;;;;;5069031;28;20212;-80
2021/09/16 02:16:03;;;;;;;5.97;5.07;;;16.80;99.90;;;;;;5067187;28;20190;-81
2021/09/16 02:18:29;;;;;;;6.45;4.65;;;16.80;99.90;;;;;;5050460;28;20177;-83
2021/09/16 02:20:54;;;;;;;5.55;4.40;;;16.80;99.90;;;;;;5068138;28;20666;-82
2021/09/16 02:23:20;;;;;;;5.68;4.63;;;16.90;99.90;;;;;;5050075;28;20214;-82
2021/09/16 02:25:45;;;;;;;6.40;3.90;;;16.80;99.90;;;;;;5050542;28;20197;-81
2021/09/16 02:28:12;;;;;;;5.80;4.28;;;16.80;99.90;;;;;;5050296;28;20185;-81
2021/09/16 02:30:38;;;;;;;4.55;3.88;;;16.80;99.90;;;;;;5049847;28;20182;-81
2021/09/16 02:33:04;;;;;;;5.60;3.78;;;16.80;99.90;;;;;;5068261;28;20289;-81
2021/09/16 02:35:31;;;;;;;6.45;4.30;;;16.80;99.90;;;;;;5066650;28;20208;-81
2021/09/16 02:37:57;;;;;;;5.03;4.25;;;16.90;99.90;;;;;;5068070;28;20184;-80
2021/09/16 02:40:23;;;;;;;4.38;3.45;;;16.80;99.90;;;;;;5050118;28;20663;-81
2021/09/16 02:42:49;;;;;;;4.50;3.55;;;16.80;99.90;;;;;;5049701;28;20274;-82
2021/09/16 02:45:14;;;;;;;4.30;3.72;;;16.80;99.90;;;;;;5050506;28;20181;-80
2021/09/16 02:47:40;;;;;;;4.88;3.95;;;16.80;99.90;;;;;;5066946;28;20184;-81
2021/09/16 02:50:06;;;;;;;4.25;3.53;;;16.80;99.90;;;;;;5068270;28;20185;-81
2021/09/16 02:52:32;;;;;;;4.72;3.47;;;16.80;99.90;;;;;;5050136;28;20205;-81
2021/09/16 02:54:57;;;;;;;4.10;3.05;;;16.70;99.90;;;;;;5068111;28;20284;-82
2021/09/16 02:57:23;;;;;;;5.10;3.20;;;16.70;99.90;;;;;;5067762;28;20190;-81
2021/09/16 02:59:49;;;;;;;5.35;2.80;;;16.70;99.90;;;;;;5049329;28;20198;-80
2021/09/16 03:02:14;;;;;;;4.55;3.63;;;16.70;99.90;;;;;;5049368;28;20319;-80
2021/09/16 03:04:40;;;;;;;7.75;4.10;;;16.70;99.90;;;;;;5049206;28;20247;-81
2021/09/16 03:07:05;;;;;;;3.78;2.85;;;16.60;99.90;;;;;;5068541;28;20896;-81
2021/09/16 03:09:31;;;;;;;3.78;3.45;;;16.60;99.90;;;;;;5049956;28;20340;-82
2021/09/16 03:11:56;;;;;;;3.67;3.17;;;16.60;99.90;;;;;;5049262;28;20178;-81
2021/09/16 03:14:22;;;;;;;5.03;3.45;;;16.60;99.90;;;;;;5067465;28;20193;-81
2021/09/16 03:16:48;;;;;;;3.20;2.78;;;16.60;99.90;;;;;;5066891;28;20228;-81
2021/09/16 03:19:13;;;;;;;4.70;2.95;;;16.60;99.90;;;;;;5066487;28;20647;-80
2021/09/16 03:21:39;;;;;;;5.03;3.30;;;16.60;99.90;;;;;;5048128;28;20239;-80
2021/09/16 03:24:05;;;;;;;3.92;3.03;;;16.60;99.90;;;;;;5067001;28;20243;-81
2021/09/16 03:26:31;;;;;;;5.30;3.00;;;16.60;99.90;;;;;;5067154;28;20177;-82
2021/09/16 03:28:56;;;;;;;4.65;2.95;;;16.60;99.90;;;;;;5066834;28;20170;-80
2021/09/16 03:31:22;;;;;;;4.15;2.92;;;16.60;99.90;;;;;;5047691;28;20182;-80
2021/09/16 03:33:47;;;;;;;3.00;2.55;;;16.60;99.90;;;;;;5048016;28;20746;-80
2021/09/16 03:36:13;;;;;;;3.10;2.58;;;16.60;99.90;;;;;;5049163;28;20213;-80
2021/09/16 03:38:38;;;;;;;3.78;2.50;;;16.60;99.90;;;;;;5065793;28;20662;-80
2021/09/16 03:41:04;;;;;;;2.15;1.95;;;16.60;99.90;;;;;;5065881;28;20678;-81
2021/09/16 03:43:30;;;;;;;2.00;1.85;;;16.60;99.90;;;;;;5065822;28;20221;-81
2021/09/16 03:45:55;;;;;;;1.77;1.60;;;16.60;99.90;;;;;;5066294;28;20182;-80
2021/09/16 03:48:21;;;;;;;2.38;2.17;;;16.60;99.90;;;;;;5048139;28;20711;-80
2021/09/16 03:50:46;;;;;;;3.47;1.90;;;16.50;99.90;;;;;;5047947;28;20185;-80
2021/09/16 03:53:12;;;;;;;2.42;1.92;;;16.60;99.90;;;;;;5048024;28;20262;-80
2021/09/16 03:55:38;;;;;;;2.35;2.00;;;16.60;99.90;;;;;;5047980;28;21105;-81
2021/09/16 03:58:04;;;;;;;2.78;1.63;;;16.50;99.90;;;;;;5048160;28;20558;-81
2021/09/16 04:00:29;;;;;;;1.40;1.25;;;16.40;99.90;;;;;;5047926;28;20189;-80
2021/09/16 04:02:55;;;;;;;3.35;1.10;;;16.30;99.90;;;;;;5047475;28;20286;-80
2021/09/16 04:05:20;;;;;;;1.70;0.95;;;16.30;99.90;;;;;;5065134;28;20667;-80
2021/09/16 04:07:46;;;;;;;1.02;0.75;;;16.20;99.90;;;;;;5064960;28;20666;-81
2021/09/16 04:10:12;;;;;;;1.35;0.77;;;16.30;99.90;;;;;;5047939;28;20178;-81
2021/09/16 04:12:38;;;;;;;1.02;0.70;;;16.30;99.90;;;;;;5047272;28;20212;-80
2021/09/16 04:15:05;;;;;;;1.60;0.60;;;16.30;99.90;;;;;;5047465;28;20197;-80
2021/09/16 04:17:30;;;;;;;1.88;0.52;;;16.20;99.90;;;;;;5047499;28;20253;-81
2021/09/16 04:19:56;;;;;;;1.10;0.80;;;16.20;99.90;;;;;;5065662;28;20308;-80
2021/09/16 04:22:22;;;;;;;0.65;0.50;;;16.10;99.90;;;;;;5047161;28;20296;-80
2021/09/16 04:24:47;;;;;;;1.90;0.50;;;16.00;99.90;;;;;;5065556;28;20184;-81
2021/09/16 04:27:13;;;;;;;1.42;0.73;;;16.00;99.90;;;;;;5048609;28;20223;-80
2021/09/16 04:29:42;;;;;;;2.45;0.70;;;15.90;99.90;;;;;;5047599;28;20675;-80
2021/09/16 04:32:08;;;;;;;0.98;0.50;;;15.90;99.90;;;;;;5047381;28;20272;-80
2021/09/16 04:34:34;;;;;;;1.05;0.50;;;15.80;99.90;;;;;;5063913;28;20235;-80
2021/09/16 04:36:59;;;;;;;2.78;0.80;;;15.80;99.90;;;;;;5047376;28;20181;-80
2021/09/16 04:39:25;;;;;;;2.47;0.55;;;15.80;99.90;;;;;;5064758;28;20266;-80
2021/09/16 04:41:51;;;;;;;1.38;0.95;;;15.80;99.90;;;;;;5065067;28;20237;-80
2021/09/16 04:44:16;;;;;;;0.55;0.50;;;15.80;99.90;;;;;;5047405;28;20178;-80
2021/09/16 04:46:42;;;;;;;1.92;0.60;;;15.70;99.90;;;;;;5047145;28;21169;-80
2021/09/16 04:49:07;;;;;;;0.75;0.52;;;15.70;99.90;;;;;;5047150;28;20264;-81
2021/09/16 04:51:33;;;;;;;1.55;0.70;;;15.60;99.90;;;;;;5046908;28;20188;-80
2021/09/16 04:53:58;;;;;;;2.30;0.75;;;15.60;99.90;;;;;;5047215;28;20755;-80
2021/09/16 04:56:24;;;;;;;1.02;0.50;;;15.60;99.90;;;;;;5065248;28;20188;-79
2021/09/16 04:58:50;;;;;;;0.60;0.60;;;15.60;99.90;;;;;;5047111;28;20547;-80
2021/09/16 05:01:16;;;;;;;0.90;0.52;;;15.60;99.90;;;;;;5046522;28;20185;-80
2021/09/16 05:03:43;;;;;;;3.42;0.60;;;15.50;99.90;;;;;;5063126;28;20346;-81
2021/09/16 05:06:08;;;;;;;1.10;0.63;;;15.40;99.90;;;;;;5064745;28;20272;-81
2021/09/16 05:08:34;;;;;;;1.40;0.80;;;15.40;99.90;;;;;;5065123;28;20671;-81
2021/09/16 05:11:00;;;;;;;0.55;0.55;;;15.30;99.90;;;;;;5049790;28;20177;-80
2021/09/16 05:13:25;;;;;;;1.23;0.60;;;15.30;99.90;;;;;;5050318;28;20682;-81
2021/09/16 05:15:51;;;;;;;1.30;0.50;;;15.30;99.90;;;;;;5068999;28;20177;-81
2021/09/16 05:18:17;;;;;;;1.60;0.73;;;15.20;99.90;;;;;;5050561;28;20182;-80
2021/09/16 05:20:42;;;;;;;0.60;0.60;;;15.30;99.90;;;;;;5050977;28;20245;-81
2021/09/16 05:23:08;;;;;;;2.30;0.60;;;15.30;99.90;;;;;;5050766;28;20217;-80
2021/09/16 05:25:33;;;;;;;1.17;0.60;;;15.30;99.90;;;;;;5051021;28;20181;-81
2021/09/16 05:28:00;;;;;;;2.63;0.65;;;15.30;99.90;;;;;;5050900;28;20255;-81
2021/09/16 05:30:25;;;;;;;1.13;0.52;;;15.20;99.90;;;;;;5068770;28;20184;-81
2021/09/16 05:32:51;;;;;;;1.13;0.50;;;15.20;99.90;;;;;;5068382;28;21009;-81
2021/09/16 05:35:17;;;;;;;0.95;0.50;;;15.20;99.90;;;;;;5050991;28;20234;-80
2021/09/16 05:37:42;;;;;;;0.70;0.60;;;15.30;99.90;;;;;;5050874;28;20181;-81
2021/09/16 05:40:10;;;;;;;1.88;0.57;;;15.30;99.90;;;;;;5050515;28;20197;-80
2021/09/16 05:42:36;;;;;;;1.02;0.80;;;15.40;99.90;;;;;;5050252;28;20245;-81
2021/09/16 05:45:06;;;;;;;0.90;0.60;;;15.40;99.90;;;;;;5068726;28;20181;-81
2021/09/16 05:47:31;;;;;;;1.65;0.57;;;15.50;99.90;;;;;;5050531;28;20180;-81
2021/09/16 05:49:57;;;;;;;3.03;0.60;;;15.50;99.90;;;;;;5050572;28;20173;-81
2021/09/16 05:52:22;;;;;;;1.00;0.68;;;15.60;99.90;;;;;;5050149;28;20268;-80
2021/09/16 05:54:48;;;;;;;0.93;0.52;;;15.60;99.90;;;;;;5050313;28;20181;-81
2021/09/16 05:57:14;;;;;;;1.45;0.88;;;15.60;99.90;;;;;;5042335;28;20586;-80
2021/09/16 05:59:39;;;;;;;1.75;0.57;;;15.70;99.90;;;;;;5050213;28;20192;-81
2021/09/16 06:02:05;;;;;;;1.10;0.60;;;15.70;99.90;;;;;;5068242;28;20205;-80
2021/09/16 06:04:30;;;;;;;1.00;0.45;;;15.80;99.90;;;;;;5050466;28;20197;-81
2021/09/16 06:06:56;;;;;;;1.08;0.45;;;15.90;99.90;;;;;;5068464;28;20269;-81
2021/09/16 06:09:22;;;;;;;1.75;0.40;;;16.00;99.90;;;;;;5047249;28;20209;-81
2021/09/16 06:11:47;;;;;;;2.45;0.88;;;16.20;99.90;;;;;;5044590;28;20272;-81
2021/09/16 06:14:13;;;;;;;3.03;0.73;;;16.10;99.90;;;;;;5046106;28;20691;-81
2021/09/16 06:16:39;;;;;;;1.00;0.50;;;16.20;99.90;;;;;;5049651;28;20181;-80
2021/09/16 06:19:04;;;;;;;1.15;0.65;;;16.20;99.90;;;;;;5048941;28;20190;-81
2021/09/16 06:21:30;;;;;;;0.70;0.50;;;16.20;99.90;;;;;;5048485;28;20212;-82
2021/09/16 06:23:55;;;;;;;1.10;0.60;;;16.30;99.90;;;;;;5039453;28;20201;-81
2021/09/16 06:26:22;;;;;;;1.73;0.80;;;16.40;99.90;;;;;;5049556;28;20216;-82
2021/09/16 06:28:48;;;;;;;1.15;0.73;;;16.30;99.90;;;;;;5049085;28;20177;-81
2021/09/16 06:31:13;;;;;;;2.95;0.90;;;16.20;99.90;;;;;;5050293;28;20208;-82
2021/09/16 06:37:01;;;;;;;2.10;1.10;;;15.90;99.90;;;;;;5072711;28;20251;-79
2021/09/16 06:39:26;;;;;;;4.78;1.20;;;15.90;99.90;;;;;;5052461;28;20185;-82
2021/09/16 06:41:52;;;;;;;3.88;1.00;;;16.10;99.90;;;;;;5047728;28;20768;-82
2021/09/16 06:44:17;;;;;;;2.33;1.10;;;16.30;99.90;;;;;;5048898;28;20185;-81
2021/09/16 06:46:43;;;;;;;3.10;1.17;;;16.40;99.90;;;;;;5049760;28;20780;-80
2021/09/16 06:49:09;;;;;;;4.38;1.10;;;16.60;99.90;;;;;;5068045;28;20187;-81
2021/09/16 06:51:34;;;;;;;2.85;1.00;;;16.80;99.90;;;;;;5049500;28;20198;-80
2021/09/16 06:54:00;;;;;;;1.85;0.98;;;16.90;99.90;;;;;;5050495;28;20197;-80
2021/09/16 06:56:26;;;;;;;2.67;0.90;;;17.00;99.90;;;;;;5050262;28;20182;-81
2021/09/16 06:58:52;;;;;;;2.42;0.63;;;17.20;99.90;;;;;;5066067;28;20651;-80
2021/09/16 07:01:17;;;;;;;1.13;0.60;;;17.20;99.90;;;;;;5049655;28;20213;-80
2021/09/16 07:03:43;;;;;;;1.85;0.52;;;17.30;99.90;;;;;;5067598;28;20240;-80
2021/09/16 07:06:08;;;;;;;1.60;0.93;;;17.40;99.90;;;;;;5067673;28;20193;-80
2021/09/16 07:08:34;;;;;;;3.60;0.88;;;17.50;99.90;;;;;;5067356;28;20180;-80
2021/09/16 07:10:59;;;;;;;3.58;0.63;;;17.60;99.90;;;;;;5068538;28;20252;-80
2021/09/16 07:13:25;;;;;;;0.45;0.40;;;17.60;99.90;;;;;;5067002;28;20247;-80
2021/09/16 07:15:50;;;;;;;1.58;0.43;;;17.70;99.90;;;;;;5049599;28;20177;-80
2021/09/16 07:18:16;;;;;;;2.40;0.50;;;17.80;99.90;;;;;;5063913;28;20196;-81
2021/09/16 07:23:17;;;;;;;0.95;0.40;;;17.90;99.90;;;;;;5574070;22;20419;-80
2021/09/16 07:25:43;;;;;;;3.03;0.47;;;17.90;99.90;;;;;;5069475;28;20182;-81
2021/09/16 07:28:08;;;;;;;2.55;0.68;;;17.80;99.90;;;;;;5070569;28;20200;-80
2021/09/16 07:30:34;;;;;;;0.70;0.50;;;17.80;99.90;;;;;;5070897;28;20642;-80
2021/09/16 07:32:59;;;;;;;0.70;0.40;;;17.70;99.90;;;;;;5068354;28;20209;-80
2021/09/16 07:35:25;;;;;;;0.63;0.35;;;17.60;99.90;;;;;;5077047;28;20185;-80
2021/09/16 07:37:50;;;;;;;0.52;0.50;;;17.70;99.90;;;;;;5070862;28;20264;-79
2021/09/16 07:40:16;;;;;;;1.17;0.70;;;17.70;99.90;;;;;;5072374;28;20186;-80
2021/09/16 07:42:43;;;;;;;2.70;0.52;;;17.80;99.90;;;;;;5078069;28;20675;-80
2021/09/16 07:45:08;;;;;;;1.55;0.47;;;17.80;99.90;;;;;;5065494;28;20656;-80
2021/09/16 07:47:34;;;;;;;0.75;0.30;;;17.80;99.90;;;;;;5068521;28;20177;-80
2021/09/16 07:50:00;;;;;;;2.03;0.60;;;18.00;99.90;;;;;;5074598;28;20356;-79
2021/09/16 07:52:25;;;;;;;2.38;0.70;;;18.00;99.90;;;;;;5072087;28;20217;-80
2021/09/16 07:54:51;;;;;;;1.25;0.55;;;18.00;99.90;;;;;;5071283;28;20244;-80
2021/09/16 07:57:16;;;;;;;1.75;0.50;;;18.00;99.90;;;;;;5067216;28;20729;-80
2021/09/16 07:59:42;;;;;;;1.70;0.57;;;18.00;99.90;;;;;;5068152;28;20195;-79
2021/09/16 08:02:08;;;;;;;0.82;0.40;;;18.00;99.90;;;;;;5085043;28;20209;-81
2021/09/16 08:04:33;;;;;;;5.35;0.60;;;18.10;99.90;;;;;;5062326;28;20669;-81
2021/09/16 08:06:59;;;;;;;0.95;0.40;;;18.10;99.90;;;;;;5069348;28;20224;-81
2021/09/16 08:09:25;;;;;;;1.25;0.35;;;18.20;99.90;;;;;;5068375;28;20182;-83
2021/09/16 08:11:50;;;;;;;1.40;0.45;;;18.30;99.90;;;;;;5069299;28;20181;-80
2021/09/16 08:14:16;;;;;;;1.25;0.68;;;18.50;99.90;;;;;;5067928;28;20181;-80
2021/09/16 08:16:42;;;;;;;1.95;0.52;;;18.60;99.90;;;;;;5069133;28;20480;-80
2021/09/16 08:19:08;;;;;;;1.50;0.40;;;18.70;99.90;;;;;;5077626;28;20180;-80
2021/09/16 08:21:34;;;;;;;1.27;0.60;;;18.80;99.90;;;;;;5074487;28;20276;-80
2021/09/16 08:24:01;;;;;;;0.80;0.35;;;19.00;99.90;;;;;;5067448;28;20252;-81
2021/09/16 08:26:26;;;;;;;0.30;0.30;;;19.50;99.90;;;;;;5072627;28;20177;-80
2021/09/16 08:28:53;;;;;;;0.45;0.28;;;19.60;99.90;;;;;;5072903;28;20302;-80
2021/09/16 08:31:19;;;;;;;0.38;0.30;;;19.90;99.90;;;;;;5072708;28;20245;-81
2021/09/16 08:33:46;;;;;;;0.95;0.40;;;20.00;99.90;;;;;;5071633;28;20330;-81
2021/09/16 08:36:12;;;;;;;0.73;0.50;;;19.90;99.90;;;;;;5072726;28;20251;-79
2021/09/16 08:38:39;;;;;;;0.43;0.40;;;19.70;99.90;;;;;;5070890;28;20181;-80
2021/09/16 08:41:05;;;;;;;2.28;0.55;;;19.30;99.90;;;;;;5073943;28;20184;-81
2021/09/16 08:43:33;;;;;;;0.98;0.47;;;19.00;99.90;;;;;;5087198;28;20219;-80
2021/09/16 08:56:20;;;;;;;1.35;0.70;;;19.40;99.90;;;;;;5116750;28;20229;-79
2021/09/16 08:58:46;;;;;;;2.00;0.60;;;19.70;99.90;;;;;;5083428;28;20646;-82
2021/09/16 09:01:14;;;;;;;1.10;0.60;;;19.70;99.90;;;;;;5078630;28;20203;-80
2021/09/16 09:03:40;;;;;;;1.13;0.60;;;19.70;99.90;;;;;;5094328;28;20969;-80
2021/09/16 09:06:42;;;;;;;1.10;0.40;;;19.60;99.90;;;;;;5076986;28;20189;-80
2021/09/16 09:09:19;;;;;;;0.45;0.40;;;19.60;99.90;;;;;;5078832;28;20185;-80
2021/09/16 09:11:53;;;;;;;0.85;0.50;;;19.70;99.90;;;;;;5092850;28;20192;-81
2021/09/16 09:14:21;;;;;;;1.33;0.50;;;19.90;99.90;;;;;;5093031;28;20191;-80
2021/09/16 09:16:46;;;;;;;1.08;0.50;;;19.90;99.90;;;;;;5078070;28;20639;-81
2021/09/16 09:19:18;;;;;;;5.88;0.90;;;19.90;99.90;;;;;;5076709;28;20178;-81
2021/09/16 09:21:45;;;;;;;2.60;1.00;;;20.00;99.90;;;;;;5076651;28;20178;-80
2021/09/16 09:24:11;;;;;;;2.13;1.15;;;20.10;99.90;;;;;;5073054;28;20224;-79
2021/09/16 09:26:39;;;;;;;3.63;1.92;;;20.00;99.90;;;;;;5076512;28;20208;-81
2021/09/16 09:29:08;;;;;;;2.30;1.02;;;20.10;99.90;;;;;;5076933;28;20177;-80
2021/09/16 09:31:40;;;;;;;7.57;4.28;;;20.00;99.90;;;;;;5075218;28;20184;-81
2021/09/16 09:34:30;;;;;;;2.50;1.10;;;20.00;99.90;;;;;;5094980;28;20225;-82
2021/09/16 09:37:13;;;;;;;4.07;1.50;;;20.20;99.90;;;;;;5094511;28;20268;-82
2021/09/16 09:39:41;;;;;;;2.40;1.20;;;20.30;99.90;;;;;;5080242;28;20802;-81
2021/09/16 09:42:22;;;;;;;4.88;2.30;;;20.40;99.90;;;;;;5077593;28;20220;-81
2021/09/16 09:44:51;;;;;;;6.80;3.38;;;20.40;99.90;;;;;;5076843;28;21270;-81
2021/09/16 09:47:35;;;;;;;6.80;3.25;;;20.30;99.90;;;;;;5094087;28;20189;-80
2021/09/16 09:50:00;;;;;;;3.55;1.95;;;20.20;99.90;;;;;;5076676;28;20179;-80
2021/09/16 09:52:26;;;;;;;3.88;1.73;;;20.10;99.90;;;;;;5078030;28;20208;-80
2021/09/16 09:54:52;;;;;;;2.30;1.02;;;19.70;99.90;;;;;;5077352;28;20213;-80
2021/09/16 09:57:19;;;;;;;4.15;2.50;;;19.50;99.90;;;;;;5093141;28;20192;-81
2021/09/16 10:00:00;;;;;;;5.03;3.03;;;19.70;99.90;;;;;;5076692;28;20189;-81
2021/09/16 10:02:41;;;;;;;2.97;1.40;;;19.90;99.90;;;;;;5076513;28;20209;-82
2021/09/16 10:05:33;;;;;;;3.50;2.15;;;19.90;99.90;;;;;;5079700;28;20280;-80
2021/09/16 10:08:11;;;;;;;4.78;1.20;;;19.90;99.90;;;;;;5073367;28;20185;-81
2021/09/16 10:10:42;;;;;;;1.40;1.02;;;19.90;99.90;;;;;;5077157;28;20199;-81
2021/09/16 10:13:11;;;;;;;2.20;1.30;;;19.70;99.90;;;;;;5077993;28;20209;-80
2021/09/16 10:15:36;;;;;;;1.67;0.98;;;19.80;99.90;;;;;;5077704;28;20189;-80
2021/09/16 10:18:02;;;;;;;1.77;0.63;;;19.60;99.90;;;;;;5077278;28;20177;-81
2021/09/16 10:20:28;;;;;;;2.10;1.13;;;19.60;99.90;;;;;;5078737;28;20225;-81
2021/09/16 10:23:05;;;;;;;2.47;0.88;;;19.70;99.90;;;;;;5077132;28;20349;-81
2021/09/16 10:25:31;;;;;;;0.93;0.70;;;19.90;99.90;;;;;;5074764;28;20250;-81
2021/09/16 10:27:58;;;;;;;2.95;0.98;;;19.90;99.90;;;;;;5075111;28;20188;-80
2021/09/16 10:30:24;;;;;;;4.15;1.23;;;20.20;99.90;;;;;;5078501;28;20182;-81
2021/09/16 10:33:01;;;;;;;1.42;0.98;;;20.50;99.90;;;;;;5076879;28;20653;-80
2021/09/16 10:35:27;;;;;;;1.77;1.50;;;20.90;99.90;;;;;;5075348;28;20192;-81
2021/09/16 10:37:53;;;;;;;1.80;1.17;;;21.20;99.90;;;;;;5074394;28;20178;-80
2021/09/16 10:40:29;;;;;;;1.85;1.08;;;21.40;99.90;;;;;;5077688;28;20192;-79
2021/09/16 10:43:03;;;;;;;2.00;0.88;;;21.50;99.90;;;;;;5075120;28;20209;-81
2021/09/16 10:45:40;;;;;;;1.48;0.98;;;21.20;99.90;;;;;;5092417;28;20177;-81
2021/09/16 10:48:17;;;;;;;1.35;1.13;;;20.90;99.90;;;;;;5075522;28;20586;-80
2021/09/16 10:50:46;;;;;;;3.03;1.00;;;20.50;99.90;;;;;;5082949;28;20964;-81
2021/09/16 10:53:33;;;;;;;1.05;0.55;;;20.30;99.90;;;;;;5091955;28;20783;-81
2021/09/16 10:55:59;;;;;;;1.33;0.93;;;19.80;99.90;;;;;;5075109;28;20191;-81
2021/09/16 10:58:26;;;;;;;1.45;0.68;;;19.20;99.90;;;;;;5075633;28;20181;-81
2021/09/16 11:00:52;;;;;;;0.95;0.73;;;19.00;99.90;;;;;;5078602;28;20188;-81
2021/09/16 11:03:17;;;;;;;1.33;0.60;;;19.00;99.90;;;;;;5085449;28;20232;-81
2021/09/16 11:05:50;;;;;;;2.72;0.95;;;19.20;99.90;;;;;;5096907;28;20184;-83
2021/09/16 11:08:18;;;;;;;1.08;0.80;;;19.40;99.90;;;;;;5095118;28;20178;-82
2021/09/16 11:10:43;;;;;;;3.00;1.27;;;19.70;99.90;;;;;;5080094;28;20237;-82
2021/09/16 11:13:28;;;;;;;2.00;1.05;;;20.20;99.90;;;;;;5076002;28;20206;-80
2021/09/16 11:15:53;;;;;;;1.70;1.00;;;20.70;99.90;;;;;;5078476;28;20596;-82
2021/09/16 11:18:21;;;;;;;1.85;0.70;;;20.80;99.90;;;;;;5076215;28;20193;-82
2021/09/16 11:20:48;;;;;;;1.13;0.90;;;20.90;99.90;;;;;;5077493;28;20194;-82
2021/09/16 11:23:16;;;;;;;1.10;0.82;;;21.00;99.90;;;;;;5091519;28;20243;-82
2021/09/16 11:25:44;;;;;;;1.13;0.73;;;20.80;99.90;;;;;;5079005;28;20180;-82
2021/09/16 11:28:11;;;;;;;1.80;1.00;;;20.40;99.90;;;;;;5077735;28;20678;-83
2021/09/16 11:30:39;;;;;;;1.77;0.98;;;20.20;99.90;;;;;;5094787;28;20174;-83
2021/09/16 11:33:07;;;;;;;1.23;0.70;;;20.10;99.90;;;;;;5079172;28;20246;-82
2021/09/16 11:35:32;;;;;;;1.05;0.73;;;19.80;99.90;;;;;;5077465;28;20252;-82
2021/09/16 11:38:00;;;;;;;0.98;0.88;;;19.80;99.90;;;;;;5077318;28;20272;-83
2021/09/16 11:40:29;;;;;;;2.47;1.10;;;19.80;99.90;;;;;;5076784;28;20184;-81
2021/09/16 11:43:01;;;;;;;1.50;1.02;;;19.60;99.90;;;;;;5092989;28;20240;-82
2021/09/16 11:45:32;;;;;;;2.40;1.10;;;19.60;99.90;;;;;;5077861;28;20173;-83
2021/09/16 11:48:25;;;;;;;1.02;0.75;;;19.30;99.90;;;;;;5068504;28;20657;-83
2021/09/16 11:51:01;;;;;;;0.80;0.80;;;19.20;99.90;;;;;;5077684;28;20227;-81
2021/09/16 11:53:34;;;;;;;1.60;1.02;;;19.00;99.90;;;;;;5076747;28;20188;-83
2021/09/16 11:56:05;;;;;;;2.58;1.15;;;18.90;99.90;;;;;;5093707;28;20212;-83
2021/09/16 11:58:36;;;;;;;1.27;1.00;;;19.10;99.90;;;;;;5078151;28;20181;-82
2021/09/16 12:01:11;;;;;;;1.48;1.00;;;19.40;99.90;;;;;;5076860;28;20188;-82
2021/09/16 12:03:39;;;;;;;2.15;1.02;;;19.60;99.90;;;;;;5074347;28;20204;-82
2021/09/16 12:06:15;;;;;;;1.98;1.20;;;19.80;99.90;;;;;;5075658;28;20186;-84
2021/09/16 12:08:53;;;;;;;2.80;1.30;;;19.90;99.90;;;;;;5076652;28;20177;-83
2021/09/16 12:11:24;;;;;;;1.90;1.00;;;19.70;99.90;;;;;;5077804;28;20168;-83
2021/09/16 12:13:52;;;;;;;1.00;1.00;;;19.60;99.90;;;;;;5092024;28;20205;-84
2021/09/16 12:16:39;;;;;;;2.35;1.02;;;19.40;99.90;;;;;;5077019;28;20181;-82
2021/09/16 12:19:13;;;;;;;1.35;1.20;;;19.30;99.90;;;;;;5074695;28;20201;-82
2021/09/16 12:21:51;;;;;;;1.60;1.15;;;19.10;99.90;;;;;;5092950;28;20608;-82
2021/09/16 12:24:20;;;;;;;1.95;1.17;;;19.00;99.90;;;;;;5093125;28;20213;-83
2021/09/16 12:26:48;;;;;;;1.73;1.10;;;19.00;99.90;;;;;;5077789;28;20181;-83
2021/09/16 12:29:20;;;;;;;3.08;1.33;;;19.10;99.90;;;;;;5073148;28;20176;-83
2021/09/16 12:32:04;;;;;;;1.92;1.30;;;19.20;99.90;;;;;;5076566;28;20738;-83
2021/09/16 12:34:35;;;;;;;1.83;1.40;;;19.20;99.90;;;;;;5076548;28;20189;-82
2021/09/16 12:37:06;;;;;;;1.40;1.10;;;19.30;99.90;;;;;;5092207;28;20177;-82
2021/09/16 12:39:52;;;;;;;1.50;1.40;;;19.60;99.90;;;;;;5076156;28;20195;-82
2021/09/16 12:42:26;;;;;;;2.33;1.13;;;19.80;99.90;;;;;;5067298;28;20638;-82
2021/09/16 12:44:51;;;;;;;2.75;1.27;;;20.10;99.90;;;;;;5075478;28;20177;-82
2021/09/16 12:47:17;;;;;;;1.50;1.00;;;20.20;99.90;;;;;;5074517;28;20676;-80
2021/09/16 12:49:47;;;;;;;2.05;1.40;;;20.30;99.90;;;;;;5073732;28;20185;-81
2021/09/16 12:52:26;;;;;;;3.65;1.17;;;20.20;99.90;;;;;;5075510;28;20213;-80
2021/09/16 12:54:56;;;;;;;1.92;0.95;;;20.40;99.90;;;;;;5076976;28;20184;-81
2021/09/16 12:57:25;;;;;;;1.52;1.17;;;20.30;99.90;;;;;;5072845;28;20636;-82
2021/09/16 12:59:54;;;;;;;2.15;1.27;;;20.20;99.90;;;;;;5076386;28;20184;-82
2021/09/16 13:02:23;;;;;;;1.63;1.33;;;20.20;99.90;;;;;;5074781;28;20694;-81
2021/09/16 13:04:49;;;;;;;1.85;1.17;;;20.30;99.90;;;;;;5091837;28;20185;-82